Terminal Aerodrome Forecast
Issued by NWS Lake Charles, LA

Home | Current Version | Previous Version | Text Only | Print | Product List | Glossary On
Versions: 1 2 3 4 5 6 7 8 9 10 11 12 13
046
FTUS44 KLCH 210100 AAB
TAFLCH
TAF AMD
KLCH 210100Z 2101/2124 08005KT P6SM VCSH SCT050 BKN100 OVC200
     FM210900 11005KT P6SM BKN025
     FM211500 14010KT P6SM BKN035=

USA.gov is the U.S. government's official web portal to all federal, state and local government web resources and services.